sensor_id;sensor_type;location;lat;lon;timestamp;P1;durP1;ratioP1;P2;durP2;ratioP2
4422;SDS011;2224;49.814;8.650;2022-12-18T00:00:30;48.50;;;27.73;;
4422;SDS011;2224;49.814;8.650;2022-12-18T00:02:56;47.00;;;27.80;;
4422;SDS011;2224;49.814;8.650;2022-12-18T00:05:21;46.23;;;28.43;;
4422;SDS011;2224;49.814;8.650;2022-12-18T00:07:46;56.27;;;28.83;;
4422;SDS011;2224;49.814;8.650;2022-12-18T00:10:12;43.80;;;27.50;;
4422;SDS011;2224;49.814;8.650;2022-12-18T00:12:37;39.00;;;26.33;;
4422;SDS011;2224;49.814;8.650;2022-12-18T00:15:02;54.47;;;26.77;;
4422;SDS011;2224;49.814;8.650;2022-12-18T00:17:28;43.13;;;26.73;;
4422;SDS011;2224;49.814;8.650;2022-12-18T00:19:53;50.03;;;31.30;;
4422;SDS011;2224;49.814;8.650;2022-12-18T00:22:19;35.33;;;25.80;;
4422;SDS011;2224;49.814;8.650;2022-12-18T00:24:44;47.60;;;28.53;;
4422;SDS011;2224;49.814;8.650;2022-12-18T00:27:09;41.80;;;28.47;;
4422;SDS011;2224;49.814;8.650;2022-12-18T00:29:34;48.87;;;27.77;;
4422;SDS011;2224;49.814;8.650;2022-12-18T00:32:00;44.67;;;28.93;;
4422;SDS011;2224;49.814;8.650;2022-12-18T00:34:25;43.70;;;26.90;;
4422;SDS011;2224;49.814;8.650;2022-12-18T00:36:50;45.70;;;27.43;;
4422;SDS011;2224;49.814;8.650;2022-12-18T00:39:16;52.50;;;29.70;;
4422;SDS011;2224;49.814;8.650;2022-12-18T00:41:41;44.87;;;27.50;;
4422;SDS011;2224;49.814;8.650;2022-12-18T00:44:25;41.60;;;26.63;;
4422;SDS011;2224;49.814;8.650;2022-12-18T00:46:50;48.53;;;29.03;;
4422;SDS011;2224;49.814;8.650;2022-12-18T00:49:17;48.80;;;28.30;;
4422;SDS011;2224;49.814;8.650;2022-12-18T00:51:43;49.45;;;29.58;;
4422;SDS011;2224;49.814;8.650;2022-12-18T00:54:08;47.70;;;28.70;;
4422;SDS011;2224;49.814;8.650;2022-12-18T00:56:35;45.60;;;27.02;;
4422;SDS011;2224;49.814;8.650;2022-12-18T00:59:02;46.95;;;28.50;;
4422;SDS011;2224;49.814;8.650;2022-12-18T01:01:27;46.13;;;27.00;;
4422;SDS011;2224;49.814;8.650;2022-12-18T01:03:52;44.70;;;28.10;;
4422;SDS011;2224;49.814;8.650;2022-12-18T01:06:18;41.53;;;25.30;;
4422;SDS011;2224;49.814;8.650;2022-12-18T01:08:43;48.80;;;28.03;;
4422;SDS011;2224;49.814;8.650;2022-12-18T01:11:11;46.97;;;28.63;;
4422;SDS011;2224;49.814;8.650;2022-12-18T01:13:41;47.13;;;29.48;;
4422;SDS011;2224;49.814;8.650;2022-12-18T01:16:07;44.15;;;27.88;;
4422;SDS011;2224;49.814;8.650;2022-12-18T01:18:33;43.95;;;26.42;;
4422;SDS011;2224;49.814;8.650;2022-12-18T01:20:59;44.20;;;27.03;;
4422;SDS011;2224;49.814;8.650;2022-12-18T01:23:24;52.70;;;30.33;;
4422;SDS011;2224;49.814;8.650;2022-12-18T01:25:50;41.53;;;28.50;;
4422;SDS011;2224;49.814;8.650;2022-12-18T01:28:15;46.60;;;29.10;;
4422;SDS011;2224;49.814;8.650;2022-12-18T01:30:40;50.50;;;30.47;;
4422;SDS011;2224;49.814;8.650;2022-12-18T01:33:05;46.97;;;29.10;;
4422;SDS011;2224;49.814;8.650;2022-12-18T01:35:31;49.87;;;29.80;;
4422;SDS011;2224;49.814;8.650;2022-12-18T01:37:56;49.03;;;30.60;;
4422;SDS011;2224;49.814;8.650;2022-12-18T01:40:22;55.00;;;33.63;;
4422;SDS011;2224;49.814;8.650;2022-12-18T01:42:56;49.50;;;30.57;;
4422;SDS011;2224;49.814;8.650;2022-12-18T01:45:29;56.55;;;30.00;;
4422;SDS011;2224;49.814;8.650;2022-12-18T01:48:01;52.83;;;32.13;;
4422;SDS011;2224;49.814;8.650;2022-12-18T01:50:32;40.25;;;28.23;;
4422;SDS011;2224;49.814;8.650;2022-12-18T01:53:03;49.17;;;28.85;;
4422;SDS011;2224;49.814;8.650;2022-12-18T01:55:37;46.85;;;30.63;;
4422;SDS011;2224;49.814;8.650;2022-12-18T01:58:05;48.17;;;30.27;;
4422;SDS011;2224;49.814;8.650;2022-12-18T02:00:30;49.27;;;32.20;;
4422;SDS011;2224;49.814;8.650;2022-12-18T02:02:56;50.80;;;32.83;;
4422;SDS011;2224;49.814;8.650;2022-12-18T02:13:53;48.15;;;31.45;;
4422;SDS011;2224;49.814;8.650;2022-12-18T02:19:47;55.38;;;30.35;;
4422;SDS011;2224;49.814;8.650;2022-12-18T02:22:38;55.67;;;33.33;;
4422;SDS011;2224;49.814;8.650;2022-12-18T02:28:09;48.80;;;31.25;;
4422;SDS011;2224;49.814;8.650;2022-12-18T02:30:37;52.00;;;32.15;;
4422;SDS011;2224;49.814;8.650;2022-12-18T02:33:04;49.03;;;32.07;;
4422;SDS011;2224;49.814;8.650;2022-12-18T02:35:30;45.35;;;29.83;;
4422;SDS011;2224;49.814;8.650;2022-12-18T02:37:56;49.30;;;29.03;;
4422;SDS011;2224;49.814;8.650;2022-12-18T02:40:23;46.53;;;29.80;;
4422;SDS011;2224;49.814;8.650;2022-12-18T02:42:49;46.88;;;28.52;;
4422;SDS011;2224;49.814;8.650;2022-12-18T02:45:15;50.57;;;33.60;;
4422;SDS011;2224;49.814;8.650;2022-12-18T02:47:41;47.43;;;29.60;;
4422;SDS011;2224;49.814;8.650;2022-12-18T02:58:50;41.33;;;27.40;;
4422;SDS011;2224;49.814;8.650;2022-12-18T03:01:28;43.75;;;29.33;;
4422;SDS011;2224;49.814;8.650;2022-12-18T03:04:02;49.00;;;31.20;;
4422;SDS011;2224;49.814;8.650;2022-12-18T03:06:35;49.85;;;31.65;;
4422;SDS011;2224;49.814;8.650;2022-12-18T03:09:07;53.97;;;31.48;;
4422;SDS011;2224;49.814;8.650;2022-12-18T03:11:36;45.38;;;30.50;;
4422;SDS011;2224;49.814;8.650;2022-12-18T03:14:22;46.83;;;29.23;;
4422;SDS011;2224;49.814;8.650;2022-12-18T03:16:49;46.75;;;30.90;;
4422;SDS011;2224;49.814;8.650;2022-12-18T03:19:16;48.13;;;31.08;;
4422;SDS011;2224;49.814;8.650;2022-12-18T03:21:46;48.53;;;30.75;;
4422;SDS011;2224;49.814;8.650;2022-12-18T03:24:14;50.13;;;34.08;;
4422;SDS011;2224;49.814;8.650;2022-12-18T03:26:41;51.35;;;32.08;;
4422;SDS011;2224;49.814;8.650;2022-12-18T03:29:10;54.80;;;33.45;;
4422;SDS011;2224;49.814;8.650;2022-12-18T03:31:39;45.35;;;31.27;;
4422;SDS011;2224;49.814;8.650;2022-12-18T03:34:09;51.13;;;32.65;;
4422;SDS011;2224;49.814;8.650;2022-12-18T03:36:38;53.97;;;33.60;;
4422;SDS011;2224;49.814;8.650;2022-12-18T03:39:04;48.23;;;31.10;;
4422;SDS011;2224;49.814;8.650;2022-12-18T03:41:31;49.90;;;33.07;;
4422;SDS011;2224;49.814;8.650;2022-12-18T03:44:08;52.67;;;33.35;;
4422;SDS011;2224;49.814;8.650;2022-12-18T03:49:34;52.63;;;31.40;;
4422;SDS011;2224;49.814;8.650;2022-12-18T03:52:06;50.08;;;33.85;;
4422;SDS011;2224;49.814;8.650;2022-12-18T03:54:34;53.58;;;32.58;;
4422;SDS011;2224;49.814;8.650;2022-12-18T03:57:02;57.63;;;33.83;;
4422;SDS011;2224;49.814;8.650;2022-12-18T03:59:30;51.55;;;32.38;;
4422;SDS011;2224;49.814;8.650;2022-12-18T04:01:56;52.03;;;32.70;;
4422;SDS011;2224;49.814;8.650;2022-12-18T04:04:23;52.35;;;32.85;;
4422;SDS011;2224;49.814;8.650;2022-12-18T04:06:49;53.50;;;33.30;;
4422;SDS011;2224;49.814;8.650;2022-12-18T04:09:15;59.20;;;33.23;;
4422;SDS011;2224;49.814;8.650;2022-12-18T04:11:41;50.57;;;30.37;;
4422;SDS011;2224;49.814;8.650;2022-12-18T04:14:09;56.40;;;31.85;;
4422;SDS011;2224;49.814;8.650;2022-12-18T04:16:34;45.67;;;27.90;;
4422;SDS011;2224;49.814;8.650;2022-12-18T04:18:59;50.43;;;32.10;;
4422;SDS011;2224;49.814;8.650;2022-12-18T04:21:25;50.30;;;33.37;;
4422;SDS011;2224;49.814;8.650;2022-12-18T04:23:50;52.50;;;30.57;;
4422;SDS011;2224;49.814;8.650;2022-12-18T04:26:15;49.90;;;32.27;;
4422;SDS011;2224;49.814;8.650;2022-12-18T04:28:41;55.03;;;32.40;;
4422;SDS011;2224;49.814;8.650;2022-12-18T04:31:06;48.97;;;32.67;;
4422;SDS011;2224;49.814;8.650;2022-12-18T04:33:31;54.20;;;34.17;;
4422;SDS011;2224;49.814;8.650;2022-12-18T04:35:57;52.83;;;32.53;;
4422;SDS011;2224;49.814;8.650;2022-12-18T04:38:22;51.07;;;33.10;;
4422;SDS011;2224;49.814;8.650;2022-12-18T04:40:48;54.53;;;34.57;;
4422;SDS011;2224;49.814;8.650;2022-12-18T04:43:13;51.33;;;34.30;;
4422;SDS011;2224;49.814;8.650;2022-12-18T04:45:38;52.53;;;32.03;;
4422;SDS011;2224;49.814;8.650;2022-12-18T04:48:04;56.37;;;35.27;;
4422;SDS011;2224;49.814;8.650;2022-12-18T04:50:30;49.50;;;31.97;;
4422;SDS011;2224;49.814;8.650;2022-12-18T04:52:55;54.83;;;31.60;;
4422;SDS011;2224;49.814;8.650;2022-12-18T04:55:24;60.17;;;34.00;;
4422;SDS011;2224;49.814;8.650;2022-12-18T04:57:49;52.60;;;32.50;;
4422;SDS011;2224;49.814;8.650;2022-12-18T05:00:14;56.53;;;34.67;;
4422;SDS011;2224;49.814;8.650;2022-12-18T05:02:40;52.07;;;32.43;;
4422;SDS011;2224;49.814;8.650;2022-12-18T05:05:05;55.40;;;35.50;;
4422;SDS011;2224;49.814;8.650;2022-12-18T05:07:31;57.43;;;34.13;;
4422;SDS011;2224;49.814;8.650;2022-12-18T05:09:56;47.40;;;31.50;;
4422;SDS011;2224;49.814;8.650;2022-12-18T05:12:22;54.73;;;33.10;;
4422;SDS011;2224;49.814;8.650;2022-12-18T05:14:47;56.63;;;31.60;;
4422;SDS011;2224;49.814;8.650;2022-12-18T05:17:12;45.83;;;33.33;;
4422;SDS011;2224;49.814;8.650;2022-12-18T05:19:38;58.37;;;35.20;;
4422;SDS011;2224;49.814;8.650;2022-12-18T05:22:03;48.27;;;33.50;;
4422;SDS011;2224;49.814;8.650;2022-12-18T05:24:28;56.47;;;36.13;;
4422;SDS011;2224;49.814;8.650;2022-12-18T05:26:54;61.17;;;34.37;;
4422;SDS011;2224;49.814;8.650;2022-12-18T05:29:19;52.87;;;34.37;;
4422;SDS011;2224;49.814;8.650;2022-12-18T05:31:44;50.73;;;33.50;;
4422;SDS011;2224;49.814;8.650;2022-12-18T05:34:10;51.23;;;32.03;;
4422;SDS011;2224;49.814;8.650;2022-12-18T05:36:35;54.93;;;34.57;;
4422;SDS011;2224;49.814;8.650;2022-12-18T05:39:00;53.17;;;34.13;;
4422;SDS011;2224;49.814;8.650;2022-12-18T05:41:26;51.77;;;31.23;;
4422;SDS011;2224;49.814;8.650;2022-12-18T05:43:51;51.53;;;34.77;;
4422;SDS011;2224;49.814;8.650;2022-12-18T05:46:17;55.30;;;33.93;;
4422;SDS011;2224;49.814;8.650;2022-12-18T05:48:43;53.53;;;33.20;;
4422;SDS011;2224;49.814;8.650;2022-12-18T05:51:10;48.88;;;33.05;;
4422;SDS011;2224;49.814;8.650;2022-12-18T05:53:36;50.53;;;33.13;;
4422;SDS011;2224;49.814;8.650;2022-12-18T05:56:07;63.60;;;34.30;;
4422;SDS011;2224;49.814;8.650;2022-12-18T05:58:38;50.55;;;31.80;;
4422;SDS011;2224;49.814;8.650;2022-12-18T06:01:23;56.90;;;34.30;;
4422;SDS011;2224;49.814;8.650;2022-12-18T06:03:50;52.40;;;32.63;;
4422;SDS011;2224;49.814;8.650;2022-12-18T06:06:19;63.27;;;32.73;;
4422;SDS011;2224;49.814;8.650;2022-12-18T06:08:47;54.13;;;32.83;;
4422;SDS011;2224;49.814;8.650;2022-12-18T06:11:15;52.47;;;32.90;;
4422;SDS011;2224;49.814;8.650;2022-12-18T06:13:42;54.03;;;34.75;;
4422;SDS011;2224;49.814;8.650;2022-12-18T06:16:07;56.60;;;34.67;;
4422;SDS011;2224;49.814;8.650;2022-12-18T06:18:33;50.53;;;31.87;;
4422;SDS011;2224;49.814;8.650;2022-12-18T06:20:59;51.60;;;33.00;;
4422;SDS011;2224;49.814;8.650;2022-12-18T06:23:24;48.90;;;33.50;;
4422;SDS011;2224;49.814;8.650;2022-12-18T06:25:50;56.20;;;33.70;;
4422;SDS011;2224;49.814;8.650;2022-12-18T06:28:16;55.10;;;33.03;;
4422;SDS011;2224;49.814;8.650;2022-12-18T06:30:47;58.23;;;35.20;;
4422;SDS011;2224;49.814;8.650;2022-12-18T06:33:13;59.40;;;34.47;;
4422;SDS011;2224;49.814;8.650;2022-12-18T06:35:39;54.47;;;34.40;;
4422;SDS011;2224;49.814;8.650;2022-12-18T06:38:05;47.37;;;30.43;;
4422;SDS011;2224;49.814;8.650;2022-12-18T06:40:30;48.90;;;28.97;;
4422;SDS011;2224;49.814;8.650;2022-12-18T06:42:55;45.50;;;28.07;;
4422;SDS011;2224;49.814;8.650;2022-12-18T06:45:21;44.83;;;28.17;;
4422;SDS011;2224;49.814;8.650;2022-12-18T06:47:46;45.03;;;27.67;;
4422;SDS011;2224;49.814;8.650;2022-12-18T06:50:12;48.47;;;29.47;;
4422;SDS011;2224;49.814;8.650;2022-12-18T06:52:37;51.40;;;29.83;;
4422;SDS011;2224;49.814;8.650;2022-12-18T06:55:04;50.72;;;29.73;;
4422;SDS011;2224;49.814;8.650;2022-12-18T06:57:30;63.53;;;34.07;;
4422;SDS011;2224;49.814;8.650;2022-12-18T06:59:55;53.73;;;31.40;;
4422;SDS011;2224;49.814;8.650;2022-12-18T07:02:20;46.17;;;28.40;;
4422;SDS011;2224;49.814;8.650;2022-12-18T07:04:45;58.73;;;32.20;;
4422;SDS011;2224;49.814;8.650;2022-12-18T07:07:11;49.93;;;30.10;;
4422;SDS011;2224;49.814;8.650;2022-12-18T07:09:36;56.07;;;31.10;;
4422;SDS011;2224;49.814;8.650;2022-12-18T07:12:01;46.10;;;29.20;;
4422;SDS011;2224;49.814;8.650;2022-12-18T07:14:27;57.10;;;29.70;;
4422;SDS011;2224;49.814;8.650;2022-12-18T07:16:54;55.42;;;30.60;;
4422;SDS011;2224;49.814;8.650;2022-12-18T07:19:19;51.23;;;28.70;;
4422;SDS011;2224;49.814;8.650;2022-12-18T07:21:44;52.70;;;30.03;;
4422;SDS011;2224;49.814;8.650;2022-12-18T07:24:10;54.03;;;29.47;;
4422;SDS011;2224;49.814;8.650;2022-12-18T07:26:35;53.70;;;28.50;;
4422;SDS011;2224;49.814;8.650;2022-12-18T07:29:00;59.30;;;29.43;;
4422;SDS011;2224;49.814;8.650;2022-12-18T07:31:26;57.63;;;28.80;;
4422;SDS011;2224;49.814;8.650;2022-12-18T07:33:51;48.87;;;28.07;;
4422;SDS011;2224;49.814;8.650;2022-12-18T07:36:17;60.93;;;28.93;;
4422;SDS011;2224;49.814;8.650;2022-12-18T07:38:42;54.97;;;30.47;;
4422;SDS011;2224;49.814;8.650;2022-12-18T07:41:11;52.43;;;30.87;;
4422;SDS011;2224;49.814;8.650;2022-12-18T07:43:37;50.58;;;27.45;;
4422;SDS011;2224;49.814;8.650;2022-12-18T07:46:03;50.13;;;28.03;;
4422;SDS011;2224;49.814;8.650;2022-12-18T07:48:29;68.35;;;34.33;;
4422;SDS011;2224;49.814;8.650;2022-12-18T07:50:59;50.83;;;29.07;;
4422;SDS011;2224;49.814;8.650;2022-12-18T07:53:24;50.83;;;30.48;;
4422;SDS011;2224;49.814;8.650;2022-12-18T07:55:54;47.30;;;28.33;;
4422;SDS011;2224;49.814;8.650;2022-12-18T07:58:22;57.35;;;31.30;;
4422;SDS011;2224;49.814;8.650;2022-12-18T08:00:48;45.30;;;28.53;;
4422;SDS011;2224;49.814;8.650;2022-12-18T08:03:13;52.07;;;30.57;;
4422;SDS011;2224;49.814;8.650;2022-12-18T08:05:38;49.30;;;29.73;;
4422;SDS011;2224;49.814;8.650;2022-12-18T08:08:04;54.87;;;31.00;;
4422;SDS011;2224;49.814;8.650;2022-12-18T08:10:29;52.10;;;29.57;;
4422;SDS011;2224;49.814;8.650;2022-12-18T08:12:54;52.53;;;28.37;;
4422;SDS011;2224;49.814;8.650;2022-12-18T08:15:20;62.50;;;32.77;;
4422;SDS011;2224;49.814;8.650;2022-12-18T08:17:45;44.50;;;28.40;;
4422;SDS011;2224;49.814;8.650;2022-12-18T08:20:10;50.00;;;28.70;;
4422;SDS011;2224;49.814;8.650;2022-12-18T08:22:36;44.10;;;25.60;;
4422;SDS011;2224;49.814;8.650;2022-12-18T08:25:02;59.43;;;28.97;;
4422;SDS011;2224;49.814;8.650;2022-12-18T08:27:28;53.58;;;29.13;;
4422;SDS011;2224;49.814;8.650;2022-12-18T08:29:53;49.00;;;29.93;;
4422;SDS011;2224;49.814;8.650;2022-12-18T08:32:19;46.83;;;29.00;;
4422;SDS011;2224;49.814;8.650;2022-12-18T08:34:44;51.37;;;29.33;;
4422;SDS011;2224;49.814;8.650;2022-12-18T08:37:09;54.83;;;31.70;;
4422;SDS011;2224;49.814;8.650;2022-12-18T08:39:35;60.90;;;31.73;;
4422;SDS011;2224;49.814;8.650;2022-12-18T08:42:00;51.17;;;30.07;;
4422;SDS011;2224;49.814;8.650;2022-12-18T08:44:44;52.60;;;28.52;;
4422;SDS011;2224;49.814;8.650;2022-12-18T08:47:09;53.00;;;30.20;;
4422;SDS011;2224;49.814;8.650;2022-12-18T08:49:35;53.13;;;29.77;;
4422;SDS011;2224;49.814;8.650;2022-12-18T08:52:01;46.97;;;30.35;;
4422;SDS011;2224;49.814;8.650;2022-12-18T08:54:27;56.15;;;33.08;;
4422;SDS011;2224;49.814;8.650;2022-12-18T08:56:53;54.83;;;33.47;;
4422;SDS011;2224;49.814;8.650;2022-12-18T08:59:18;46.77;;;30.87;;
4422;SDS011;2224;49.814;8.650;2022-12-18T09:01:44;53.23;;;31.67;;
4422;SDS011;2224;49.814;8.650;2022-12-18T09:04:10;56.27;;;34.10;;
4422;SDS011;2224;49.814;8.650;2022-12-18T09:06:35;51.00;;;32.63;;
4422;SDS011;2224;49.814;8.650;2022-12-18T09:09:01;62.17;;;35.57;;
4422;SDS011;2224;49.814;8.650;2022-12-18T09:11:27;55.80;;;34.10;;
4422;SDS011;2224;49.814;8.650;2022-12-18T09:13:53;64.80;;;36.33;;
4422;SDS011;2224;49.814;8.650;2022-12-18T09:16:20;55.22;;;33.70;;
4422;SDS011;2224;49.814;8.650;2022-12-18T09:18:46;67.30;;;36.42;;
4422;SDS011;2224;49.814;8.650;2022-12-18T09:21:12;91.43;;;49.73;;
4422;SDS011;2224;49.814;8.650;2022-12-18T09:23:39;93.72;;;54.67;;
4422;SDS011;2224;49.814;8.650;2022-12-18T09:26:05;99.60;;;55.23;;
4422;SDS011;2224;49.814;8.650;2022-12-18T09:28:30;78.40;;;47.23;;
4422;SDS011;2224;49.814;8.650;2022-12-18T09:30:55;73.23;;;44.73;;
4422;SDS011;2224;49.814;8.650;2022-12-18T09:33:21;57.70;;;40.20;;
4422;SDS011;2224;49.814;8.650;2022-12-18T09:35:46;61.53;;;36.40;;
4422;SDS011;2224;49.814;8.650;2022-12-18T09:38:13;52.10;;;32.83;;
4422;SDS011;2224;49.814;8.650;2022-12-18T09:40:44;62.85;;;37.42;;
4422;SDS011;2224;49.814;8.650;2022-12-18T09:43:20;59.30;;;33.75;;
4422;SDS011;2224;49.814;8.650;2022-12-18T09:46:00;58.25;;;36.08;;
4422;SDS011;2224;49.814;8.650;2022-12-18T09:48:28;60.17;;;35.50;;
4422;SDS011;2224;49.814;8.650;2022-12-18T09:50:57;52.53;;;32.20;;
4422;SDS011;2224;49.814;8.650;2022-12-18T09:53:26;60.53;;;35.67;;
4422;SDS011;2224;49.814;8.650;2022-12-18T09:55:53;52.40;;;33.90;;
4422;SDS011;2224;49.814;8.650;2022-12-18T10:00:58;55.13;;;33.88;;
4422;SDS011;2224;49.814;8.650;2022-12-18T10:03:23;64.20;;;34.40;;
4422;SDS011;2224;49.814;8.650;2022-12-18T10:06:10;56.87;;;34.90;;
4422;SDS011;2224;49.814;8.650;2022-12-18T10:11:20;59.15;;;34.65;;
4422;SDS011;2224;49.814;8.650;2022-12-18T10:13:55;55.17;;;35.83;;
4422;SDS011;2224;49.814;8.650;2022-12-18T10:27:11;57.67;;;33.90;;
4422;SDS011;2224;49.814;8.650;2022-12-18T10:29:37;57.22;;;33.60;;
4422;SDS011;2224;49.814;8.650;2022-12-18T10:32:03;59.27;;;33.60;;
4422;SDS011;2224;49.814;8.650;2022-12-18T10:34:28;54.90;;;34.50;;
4422;SDS011;2224;49.814;8.650;2022-12-18T10:36:53;53.80;;;32.70;;
4422;SDS011;2224;49.814;8.650;2022-12-18T10:39:20;55.50;;;33.43;;
4422;SDS011;2224;49.814;8.650;2022-12-18T10:41:47;55.53;;;32.97;;
4422;SDS011;2224;49.814;8.650;2022-12-18T10:44:23;55.13;;;32.37;;
4422;SDS011;2224;49.814;8.650;2022-12-18T10:46:49;53.50;;;32.92;;
4422;SDS011;2224;49.814;8.650;2022-12-18T10:49:19;65.70;;;34.92;;
4422;SDS011;2224;49.814;8.650;2022-12-18T10:51:47;52.20;;;32.10;;
4422;SDS011;2224;49.814;8.650;2022-12-18T10:54:21;54.30;;;33.70;;
4422;SDS011;2224;49.814;8.650;2022-12-18T10:56:47;60.38;;;34.05;;
4422;SDS011;2224;49.814;8.650;2022-12-18T10:59:13;53.30;;;32.57;;
4422;SDS011;2224;49.814;8.650;2022-12-18T11:04:15;55.88;;;32.00;;
4422;SDS011;2224;49.814;8.650;2022-12-18T11:06:53;54.78;;;31.67;;
4422;SDS011;2224;49.814;8.650;2022-12-18T11:09:19;55.58;;;31.58;;
4422;SDS011;2224;49.814;8.650;2022-12-18T11:11:53;64.38;;;35.67;;
4422;SDS011;2224;49.814;8.650;2022-12-18T11:14:23;59.28;;;35.33;;
4422;SDS011;2224;49.814;8.650;2022-12-18T11:16:51;56.00;;;32.13;;
4422;SDS011;2224;49.814;8.650;2022-12-18T11:21:47;55.30;;;31.70;;
4422;SDS011;2224;49.814;8.650;2022-12-18T11:26:58;43.78;;;28.08;;
4422;SDS011;2224;49.814;8.650;2022-12-18T11:29:28;45.97;;;27.23;;
4422;SDS011;2224;49.814;8.650;2022-12-18T11:34:41;54.03;;;29.60;;
4422;SDS011;2224;49.814;8.650;2022-12-18T11:37:09;48.00;;;29.92;;
4422;SDS011;2224;49.814;8.650;2022-12-18T11:39:37;45.45;;;29.45;;
4422;SDS011;2224;49.814;8.650;2022-12-18T11:50:01;52.88;;;29.90;;
4422;SDS011;2224;49.814;8.650;2022-12-18T11:52:33;52.30;;;31.05;;
4422;SDS011;2224;49.814;8.650;2022-12-18T11:55:04;52.65;;;28.17;;
4422;SDS011;2224;49.814;8.650;2022-12-18T11:57:56;55.53;;;30.40;;
4422;SDS011;2224;49.814;8.650;2022-12-18T12:00:38;52.50;;;28.88;;
4422;SDS011;2224;49.814;8.650;2022-12-18T12:03:18;54.05;;;29.13;;
4422;SDS011;2224;49.814;8.650;2022-12-18T12:19:36;54.83;;;27.50;;
4422;SDS011;2224;49.814;8.650;2022-12-18T12:30:31;54.15;;;27.92;;
4422;SDS011;2224;49.814;8.650;2022-12-18T12:38:40;50.13;;;26.42;;
4422;SDS011;2224;49.814;8.650;2022-12-18T12:41:09;49.03;;;28.20;;
4422;SDS011;2224;49.814;8.650;2022-12-18T12:43:58;55.20;;;30.35;;
4422;SDS011;2224;49.814;8.650;2022-12-18T12:46:26;55.97;;;28.23;;
4422;SDS011;2224;49.814;8.650;2022-12-18T12:48:55;47.90;;;26.87;;
4422;SDS011;2224;49.814;8.650;2022-12-18T12:51:25;44.22;;;26.65;;
4422;SDS011;2224;49.814;8.650;2022-12-18T12:53:53;52.30;;;29.83;;
4422;SDS011;2224;49.814;8.650;2022-12-18T12:56:20;50.08;;;26.85;;
4422;SDS011;2224;49.814;8.650;2022-12-18T12:58:52;50.58;;;28.35;;
4422;SDS011;2224;49.814;8.650;2022-12-18T13:02:10;58.53;;;28.38;;
4422;SDS011;2224;49.814;8.650;2022-12-18T13:12:58;53.28;;;30.00;;
4422;SDS011;2224;49.814;8.650;2022-12-18T13:18:04;53.17;;;28.07;;
4422;SDS011;2224;49.814;8.650;2022-12-18T13:20:42;56.05;;;28.88;;
4422;SDS011;2224;49.814;8.650;2022-12-18T13:36:55;48.63;;;27.38;;
4422;SDS011;2224;49.814;8.650;2022-12-18T13:39:23;52.15;;;28.02;;
4422;SDS011;2224;49.814;8.650;2022-12-18T13:41:51;51.75;;;27.55;;
4422;SDS011;2224;49.814;8.650;2022-12-18T13:49:57;57.67;;;28.45;;
4422;SDS011;2224;49.814;8.650;2022-12-18T13:52:26;53.00;;;29.77;;
4422;SDS011;2224;49.814;8.650;2022-12-18T13:54:55;55.83;;;27.25;;
4422;SDS011;2224;49.814;8.650;2022-12-18T13:59:54;54.38;;;27.77;;
4422;SDS011;2224;49.814;8.650;2022-12-18T14:02:21;49.05;;;27.50;;
4422;SDS011;2224;49.814;8.650;2022-12-18T14:04:48;51.85;;;27.58;;
4422;SDS011;2224;49.814;8.650;2022-12-18T14:07:15;56.15;;;27.45;;
4422;SDS011;2224;49.814;8.650;2022-12-18T14:09:43;61.80;;;31.42;;
4422;SDS011;2224;49.814;8.650;2022-12-18T14:15:18;53.25;;;28.17;;
4422;SDS011;2224;49.814;8.650;2022-12-18T14:17:55;60.10;;;27.13;;
4422;SDS011;2224;49.814;8.650;2022-12-18T14:20:24;53.97;;;27.30;;
4422;SDS011;2224;49.814;8.650;2022-12-18T14:22:50;50.85;;;26.88;;
4422;SDS011;2224;49.814;8.650;2022-12-18T14:25:17;48.60;;;26.87;;
4422;SDS011;2224;49.814;8.650;2022-12-18T14:27:44;50.42;;;27.90;;
4422;SDS011;2224;49.814;8.650;2022-12-18T14:33:05;51.70;;;29.35;;
4422;SDS011;2224;49.814;8.650;2022-12-18T14:35:35;46.38;;;27.48;;
4422;SDS011;2224;49.814;8.650;2022-12-18T14:40:53;46.83;;;26.05;;
4422;SDS011;2224;49.814;8.650;2022-12-18T14:43:25;47.17;;;25.45;;
4422;SDS011;2224;49.814;8.650;2022-12-18T14:45:51;44.95;;;25.60;;
4422;SDS011;2224;49.814;8.650;2022-12-18T14:48:18;43.80;;;24.10;;
4422;SDS011;2224;49.814;8.650;2022-12-18T14:51:00;47.28;;;25.38;;
4422;SDS011;2224;49.814;8.650;2022-12-18T14:53:48;45.72;;;26.42;;
4422;SDS011;2224;49.814;8.650;2022-12-18T15:01:31;54.47;;;25.98;;
4422;SDS011;2224;49.814;8.650;2022-12-18T15:03:58;42.20;;;24.58;;
4422;SDS011;2224;49.814;8.650;2022-12-18T15:09:01;47.67;;;25.92;;
4422;SDS011;2224;49.814;8.650;2022-12-18T15:11:47;46.75;;;25.60;;
4422;SDS011;2224;49.814;8.650;2022-12-18T15:17:04;46.08;;;26.05;;
4422;SDS011;2224;49.814;8.650;2022-12-18T15:19:33;50.42;;;27.10;;
4422;SDS011;2224;49.814;8.650;2022-12-18T15:22:03;54.22;;;27.75;;
4422;SDS011;2224;49.814;8.650;2022-12-18T15:24:30;50.47;;;28.93;;
4422;SDS011;2224;49.814;8.650;2022-12-18T15:26:56;56.10;;;29.35;;
4422;SDS011;2224;49.814;8.650;2022-12-18T15:29:22;51.57;;;28.97;;
4422;SDS011;2224;49.814;8.650;2022-12-18T15:32:04;50.80;;;29.07;;
4422;SDS011;2224;49.814;8.650;2022-12-18T15:34:31;54.58;;;31.80;;
4422;SDS011;2224;49.814;8.650;2022-12-18T15:36:58;56.13;;;31.10;;
4422;SDS011;2224;49.814;8.650;2022-12-18T15:39:24;55.60;;;28.20;;
4422;SDS011;2224;49.814;8.650;2022-12-18T15:41:49;51.17;;;29.87;;
4422;SDS011;2224;49.814;8.650;2022-12-18T15:44:33;48.33;;;27.65;;
4422;SDS011;2224;49.814;8.650;2022-12-18T15:46:58;54.80;;;28.83;;
4422;SDS011;2224;49.814;8.650;2022-12-18T15:49:24;54.17;;;27.63;;
4422;SDS011;2224;49.814;8.650;2022-12-18T15:51:51;49.07;;;27.63;;
4422;SDS011;2224;49.814;8.650;2022-12-18T15:54:21;49.42;;;27.55;;
4422;SDS011;2224;49.814;8.650;2022-12-18T15:57:10;52.40;;;27.60;;
4422;SDS011;2224;49.814;8.650;2022-12-18T15:59:48;58.95;;;28.50;;
4422;SDS011;2224;49.814;8.650;2022-12-18T16:02:15;52.30;;;29.20;;
4422;SDS011;2224;49.814;8.650;2022-12-18T16:04:42;49.08;;;26.45;;
4422;SDS011;2224;49.814;8.650;2022-12-18T16:07:08;56.97;;;29.00;;
4422;SDS011;2224;49.814;8.650;2022-12-18T16:09:34;55.38;;;31.00;;
4422;SDS011;2224;49.814;8.650;2022-12-18T16:12:00;55.78;;;31.63;;
4422;SDS011;2224;49.814;8.650;2022-12-18T16:14:26;55.47;;;30.07;;
4422;SDS011;2224;49.814;8.650;2022-12-18T16:16:54;50.80;;;28.10;;
4422;SDS011;2224;49.814;8.650;2022-12-18T16:19:23;56.83;;;30.33;;
4422;SDS011;2224;49.814;8.650;2022-12-18T16:21:49;54.90;;;31.03;;
4422;SDS011;2224;49.814;8.650;2022-12-18T16:24:20;52.15;;;30.17;;
4422;SDS011;2224;49.814;8.650;2022-12-18T16:26:47;55.75;;;31.65;;
4422;SDS011;2224;49.814;8.650;2022-12-18T16:29:14;52.22;;;29.38;;
4422;SDS011;2224;49.814;8.650;2022-12-18T16:31:39;57.40;;;30.10;;
4422;SDS011;2224;49.814;8.650;2022-12-18T16:34:12;54.87;;;31.87;;
4422;SDS011;2224;49.814;8.650;2022-12-18T16:36:54;59.03;;;35.08;;
4422;SDS011;2224;49.814;8.650;2022-12-18T16:39:27;59.58;;;34.10;;
4422;SDS011;2224;49.814;8.650;2022-12-18T16:41:52;73.07;;;36.50;;
4422;SDS011;2224;49.814;8.650;2022-12-18T16:44:18;65.70;;;37.77;;
4422;SDS011;2224;49.814;8.650;2022-12-18T16:46:43;67.00;;;39.30;;
4422;SDS011;2224;49.814;8.650;2022-12-18T16:49:12;61.33;;;38.92;;
4422;SDS011;2224;49.814;8.650;2022-12-18T16:51:38;61.80;;;40.22;;
4422;SDS011;2224;49.814;8.650;2022-12-18T16:54:03;60.30;;;36.60;;
4422;SDS011;2224;49.814;8.650;2022-12-18T16:56:29;72.17;;;36.03;;
4422;SDS011;2224;49.814;8.650;2022-12-18T16:58:56;68.28;;;38.85;;
4422;SDS011;2224;49.814;8.650;2022-12-18T17:01:23;65.07;;;36.63;;
4422;SDS011;2224;49.814;8.650;2022-12-18T17:03:52;61.47;;;37.55;;
4422;SDS011;2224;49.814;8.650;2022-12-18T17:06:18;61.72;;;36.38;;
4422;SDS011;2224;49.814;8.650;2022-12-18T17:08:44;61.43;;;39.30;;
4422;SDS011;2224;49.814;8.650;2022-12-18T17:11:09;67.30;;;42.20;;
4422;SDS011;2224;49.814;8.650;2022-12-18T17:13:34;66.07;;;38.20;;